Metar (rayon 200 km actualisée toutes les 30 minutes)






LFBU - Brie/Champniers, France
Distance de la station: SSE 07km
Mise à jour: 27/05/2015 21:30
clair
clair
 Wind from NE
Vent: NE 6 km/h
Température: 19°C
Point de Rosée: 3°C
Humidité: 35%
Baromètre: 1021 hPa
Récapitulatifs: clair
Visibilité: supérieure à 10 km
2015/05/27 19:30 LFBU 271930Z AUTO 04003KT CAVOK 19/03 Q1021
LFBG - Cognac/Chateaubernard, France
Distance de la station: OSO 35km
Mise à jour: 27/05/2015 21:30
clair
clair
 Wind from NO
Vent: NO 15 km/h
Température: 20°C
Point de Rosée: 11°C
Humidité: 56%
Baromètre: 1021 hPa
Récapitulatifs: clair
Visibilité: supérieure à 10 km
2015/05/27 19:30 LFBG 271930Z AUTO 31008KT CAVOK 20/11 Q1021
 
LFBL - Limoges/Bellegarde, France
Distance de la station: E 82km
Mise à jour: 27/05/2015 21:30
clair
clair
 Wind from N
Vent: N 7 km/h
Température: 16°C
Point de Rosée: 7°C
Humidité: 55%
Baromètre: 1021 hPa
Récapitulatifs: clair
Visibilité: supérieure à 10 km
2015/05/27 19:30 LFBL 271930Z AUTO 01004KT CAVOK 16/07 Q1021
LFBI - Poitiers/France
Distance de la station: N 93km
Mise à jour: 27/05/2015 21:30
clair
clair
 Wind from NNO
Vent: NNO 6 km/h
Température: 19°C
Point de Rosée: 6°C
Humidité: 43%
Baromètre: 1021 hPa
Récapitulatifs: clair
Visibilité: supérieure à 10 km
2015/05/27 19:30 LFBI 271930Z AUTO 33003KT CAVOK 19/06 Q1021
 
LFBH - La Rochelle/France
Distance de la station: ONO 106km
Mise à jour: 27/05/2015 21:30
clair
clair
 Wind from ONO
Vent: ONO 17 km/h
Température: 16°C
Point de Rosée: 11°C
Humidité: 72%
Baromètre: 1022 hPa
Récapitulatifs: clair
Visibilité: supérieure à 10 km
2015/05/27 19:30 LFBH 271930Z AUTO 30009KT CAVOK 16/11 Q1022
LFBE - Bergerac/France
Distance de la station: SSE 107km
Mise à jour: 27/05/2015 21:30
clair
clair
 Wind from N
Vent: N 4 km/h
Température: 20°C
Point de Rosée: 8°C
Humidité: 46%
Baromètre: 1020 hPa
Récapitulatifs: clair
Visibilité: supérieure à 10 km
2015/05/27 19:30 LFBE 271930Z AUTO 35002KT CAVOK 20/08 Q1020
 
LFBD - Bordeaux/France
Distance de la station: SSO 121km
Mise à jour: 27/05/2015 21:30
clair
clair
 Wind from NO
Vent: NO 13 km/h
Température: 20°C
Point de Rosée: 10°C
Humidité: 53%
Baromètre: 1021 hPa
Récapitulatifs: clair
Visibilité: supérieure à 10 km
2015/05/27 19:30 LFBD 271930Z AUTO 32007KT CAVOK 20/10 Q1021
LFRI - La Roche-sur-Yon/France
Distance de la station: NO 156km
Mise à jour: 27/05/2015 21:30
clair
clair
 Wind from O
Vent: O 11 km/h
Température: 17°C
Point de Rosée: 10°C
Humidité: 64%
Baromètre: 1022 hPa
Récapitulatifs: clair
Visibilité: supérieure à 10 km
2015/05/27 19:30 LFRI 271930Z AUTO 28006KT CAVOK 17/10 Q1022
 
LFBC - Cazaux/France
Distance de la station: SO 167km
Mise à jour: 27/05/2015 21:30
clair
clair
 Wind from NNO
Vent: NNO 13 km/h
Température: 17°C
Point de Rosée: 9°C
Humidité: 59%
Baromètre: 1021 hPa
Récapitulatifs: clair
Visibilité: supérieure à 10 km
2015/05/27 19:30 LFBC 271930Z AUTO 33007KT CAVOK 17/09 Q1021
LFLX - Chateauroux/France
Distance de la station: NE 174km
Mise à jour: 27/05/2015 21:30
clair
clair
 Wind from calm
Vent: Vent calme
Température: 17°C
Point de Rosée: 9°C
Humidité: 59%
Baromètre: 1021 hPa
Récapitulatifs: clair
Visibilité: supérieure à 10 km
2015/05/27 19:30 LFLX 271930Z AUTO 00000KT CAVOK 17/09 Q1021
 
LFBA - Agen/France
Distance de la station: SSE 179km
Mise à jour: 27/05/2015 21:30
clair
clair
 Wind from ONO
Vent: ONO 4 km/h
Température: 19°C
Point de Rosée: 7°C
Humidité: 46%
Baromètre: 1020 hPa
Récapitulatifs: clair
Visibilité: supérieure à 10 km
2015/05/27 19:30 LFBA 271930Z AUTO 30002KT CAVOK 19/07 Q1020